Hitachimaru — JD2063 — position and weather

sailwx.info

Track history (hours):
 
Tides and Currents Weather Stations Pressure Air Temp Water Temp Dewpoint Dewpoint Depression Visibility Wind Speed Wind Dir Waves Ship Positions

Hitachimaru

Last reported at 2014-Jul-31 06:05 UTC. Time now 2014-Jul-31 15:34 UTC.
Position N 34°54' E 139°23'.

Length 83 m; draft 4.5 m.

Type: Cargo ship. MMSI: 431301756.

Date/timePositionNaut miles runAvg speedWind from/ knotsBaromVisibWave heightAir tempDewpointWater temp
2014-Jul-31 06:05N 34°54' E 139°23'611.4
2014-Jul-31 05:33N 34°58' E 139°29'1211.7
2014-Jul-31 04:33N 35°06' E 139°40'1111.5
2014-Jul-31 03:33N 35°16' E 139°46'9 9.4
2014-Jul-31 02:33N 35°25' E 139°46'6 5.7
2014-Jul-31 01:33N 35°22' E 139°51'0 0.0
2014-Jul-31 00:33N 35°22' E 139°51'0 0.0
2014-Jul-30 23:33N 35°22' E 139°51'0 0.0
2014-Jul-30 22:33N 35°22' E 139°51'0 0.0
2014-Jul-30 21:33N 35°22' E 139°51'0 0.0
2014-Jul-30 20:33N 35°22' E 139°51'0 0.0
2014-Jul-30 19:33N 35°22' E 139°51'0 0.0
2014-Jul-30 18:33N 35°22' E 139°51'0 0.0
2014-Jul-30 17:33N 35°22' E 139°51'0 0.0
2014-Jul-30 16:33N 35°22' E 139°51'0 0.0
2014-Jul-30 15:33N 35°22' E 139°51'0 0.0
2014-Jul-30 14:24N 35°22' E 139°51'0 0.0
2014-Jul-30 13:30N 35°22' E 139°51'0 0.0
2014-Jul-30 12:33N 35°22' E 139°51'0 0.0
2014-Jul-30 11:33N 35°22' E 139°51'0 0.0
2014-Jul-30 10:33N 35°22' E 139°51'0 0.0
2014-Jul-30 09:33N 35°22' E 139°51'0 0.0
2014-Jul-30 08:33N 35°22' E 139°51'2 2.1
2014-Jul-30 07:33N 35°23' E 139°49'0 0.0
2014-Jul-30 06:33N 35°23' E 139°49'0 0.0
2014-Jul-30 05:33N 35°23' E 139°49'0 0.0
2014-Jul-30 04:33N 35°23' E 139°49'0 0.0
2014-Jul-30 03:33N 35°23' E 139°49'0 0.1
2014-Jul-30 02:33N 35°23' E 139°49'0 0.0
2014-Jul-30 01:33N 35°23' E 139°49'0 0.0
2014-Jul-30 00:33N 35°23' E 139°49'0 0.0
2014-Jul-29 23:33N 35°23' E 139°49'0 0.1
2014-Jul-29 22:33N 35°23' E 139°49'0 0.0
2014-Jul-29 21:33N 35°23' E 139°49'0 0.0
2014-Jul-29 20:33N 35°23' E 139°49'0 0.0
2014-Jul-29 19:33N 35°23' E 139°49'0 0.0
2014-Jul-29 18:33N 35°23' E 139°49'0 0.0
2014-Jul-29 17:33N 35°23' E 139°49'0 0.0
2014-Jul-29 16:33N 35°23' E 139°49'0 0.0
2014-Jul-29 15:33N 35°23' E 139°49'0 0.0
2014-Jul-29 14:33N 35°23' E 139°49'0 0.0
2014-Jul-29 13:33N 35°23' E 139°49'0 0.0
2014-Jul-29 12:33N 35°23' E 139°49'0 0.0
2014-Jul-29 11:33N 35°23' E 139°49'0 0.0
2014-Jul-29 10:33N 35°23' E 139°49'0 0.0
2014-Jul-29 09:33N 35°23' E 139°49'0 0.0
2014-Jul-29 08:33N 35°23' E 139°49'7 7.0
2014-Jul-29 07:33N 35°29' E 139°51'10 9.7
2014-Jul-29 06:33N 35°37' E 139°59'0 0.0
2014-Jul-29 05:33N 35°37' E 139°59'3 2.4
2014-Jul-29 04:11N 35°40' E 139°57'0 0.0
2014-Jul-29 03:29N 35°40' E 139°57'0 0.0
2014-Jul-29 02:29N 35°40' E 139°57'0 0.0
2014-Jul-29 01:23N 35°40' E 139°57'0 0.0
2014-Jul-29 00:08N 35°40' E 139°57'0 0.0
2014-Jul-28 23:32N 35°40' E 139°57'2 1.7
2014-Jul-28 22:33N 35°39' E 139°58'1010.1
2014-Jul-28 21:33N 35°30' E 139°53'1111.3
2014-Jul-28 20:33N 35°21' E 139°45'1111.2
2014-Jul-28 19:33N 35°09' E 139°47'1211.5
2014-Jul-28 18:33N 35°00' E 139°38'1212.5
2014-Jul-28 17:33N 34°53' E 139°26'  
2014-Jul-24 19:26N 34°38' E 134°58'8 8.7
2014-Jul-24 18:33N 34°33' E 135°05'1211.5
2014-Jul-24 17:33N 34°22' E 135°01'1010.0
2014-Jul-24 16:32N 34°12' E 134°60'226 9.4
2014-Jul-23 16:31N 34°58' E 139°28'1010.5
2014-Jul-23 15:33N 35°04' E 139°37'1111.4
2014-Jul-23 14:33N 35°13' E 139°46'1111.0
2014-Jul-23 13:33N 35°23' E 139°43'7 6.9
2014-Jul-23 12:33N 35°22' E 139°51'0 0.2
2014-Jul-23 11:32N 35°22' E 139°51'0 0.0
2014-Jul-23 10:32N 35°22' E 139°51'0 0.0
2014-Jul-23 09:32N 35°22' E 139°51'0 0.0
2014-Jul-23 08:31N 35°22' E 139°51'0 0.0
2014-Jul-23 07:31N 35°22' E 139°51'0 0.0
2014-Jul-23 06:31N 35°22' E 139°51'0 0.0
2014-Jul-23 05:28N 35°22' E 139°51'0 0.0
2014-Jul-23 04:28N 35°22' E 139°51'0 0.0
2014-Jul-23 03:31N 35°22' E 139°51'0 0.0
2014-Jul-23 02:31N 35°22' E 139°51'0 0.2
2014-Jul-23 01:34N 35°21' E 139°51'2 1.9
2014-Jul-23 00:31N 35°23' E 139°49'0 0.0
2014-Jul-22 23:31N 35°23' E 139°49'0 0.1
2014-Jul-22 22:31N 35°23' E 139°49'0 0.0
2014-Jul-22 21:31N 35°23' E 139°49'0 0.0
2014-Jul-22 20:31N 35°23' E 139°49'0 0.0
2014-Jul-22 19:31N 35°23' E 139°49'0 0.0
2014-Jul-22 18:31N 35°23' E 139°49'0 0.0
2014-Jul-22 17:31N 35°23' E 139°49'0 0.0
2014-Jul-22 16:31N 35°23' E 139°49'0 0.0
2014-Jul-22 15:31N 35°23' E 139°49'0 0.0
2014-Jul-22 14:31N 35°23' E 139°49'0 0.0
2014-Jul-22 13:31N 35°23' E 139°49'0 0.0
2014-Jul-22 12:31N 35°23' E 139°49'0 0.0
2014-Jul-22 11:31N 35°23' E 139°49'0 0.0
2014-Jul-22 10:31N 35°23' E 139°49'0 0.0
2014-Jul-22 09:31N 35°23' E 139°49'0 0.0
2014-Jul-22 08:31N 35°23' E 139°49'7 6.9
2014-Jul-22 07:33N 35°29' E 139°51'1111.3
2014-Jul-22 06:33N 35°39' E 139°58'3 2.7
2014-Jul-22 05:33N 35°41' E 139°57'0 0.0
2014-Jul-22 04:31N 35°41' E 139°57'0 0.0
2014-Jul-22 03:28N 35°41' E 139°57'0 0.0
2014-Jul-22 02:28N 35°41' E 139°57'0 0.0
2014-Jul-22 01:31N 35°41' E 139°57'0 0.0
2014-Jul-22 00:33N 35°41' E 139°57'4 4.2
2014-Jul-21 23:33N 35°37' E 139°58'0 0.1
2014-Jul-21 22:33N 35°37' E 139°58'3 3.2
2014-Jul-21 21:33N 35°40' E 139°57'0 0.2
2014-Jul-21 20:25N 35°40' E 139°57'0 0.0
2014-Jul-21 20:13N 35°40' E 139°57'0 0.0
2014-Jul-21 19:31N 35°40' E 139°57'0 0.0
2014-Jul-21 18:34N 35°40' E 139°57'0 0.0
2014-Jul-21 17:18N 35°40' E 139°57'0 0.0
2014-Jul-21 16:30N 35°40' E 139°57'0 0.0
2014-Jul-21 15:33N 35°40' E 139°57'4 3.5
2014-Jul-21 14:32N 35°37' E 139°58'0 0.0
2014-Jul-21 13:29N 35°37' E 139°58'0 0.0
2014-Jul-21 12:29N 35°37' E 139°58'0 0.0
2014-Jul-21 11:32N 35°37' E 139°58'0 0.0
2014-Jul-21 10:29N 35°37' E 139°58'7 8.1
2014-Jul-21 09:33N 35°30' E 139°53'1211.8
2014-Jul-21 08:33N 35°21' E 139°45'1110.8
2014-Jul-21 07:33N 35°10' E 139°46'1211.8
2014-Jul-21 06:33N 35°00' E 139°38'  
Track history (hours):
 
Tides and Currents Weather Stations Pressure Air Temp Water Temp Dewpoint Dewpoint Depression Visibility Wind Speed Wind Dir Waves Ship Positions

Hitachimaru

Last reported at 2014-Jul-31 06:05 UTC. Time now 2014-Jul-31 15:34 UTC.
Position N 34°54' E 139°23'.

Length 83 m; draft 4.5 m.

Type: Cargo ship. MMSI: 431301756.

Date/timePositionNaut miles runAvg speedWind from/ knotsBaromVisibWave heightAir tempDewpointWater temp
2014-Jul-31 06:05N 34°54' E 139°23'611.4
2014-Jul-31 05:33N 34°58' E 139°29'1211.7
2014-Jul-31 04:33N 35°06' E 139°40'1111.5
2014-Jul-31 03:33N 35°16' E 139°46'9 9.4
2014-Jul-31 02:33N 35°25' E 139°46'6 5.7
2014-Jul-31 01:33N 35°22' E 139°51'0 0.0
2014-Jul-31 00:33N 35°22' E 139°51'0 0.0
2014-Jul-30 23:33N 35°22' E 139°51'0 0.0
2014-Jul-30 22:33N 35°22' E 139°51'0 0.0
2014-Jul-30 21:33N 35°22' E 139°51'0 0.0
2014-Jul-30 20:33N 35°22' E 139°51'0 0.0
2014-Jul-30 19:33N 35°22' E 139°51'0 0.0
2014-Jul-30 18:33N 35°22' E 139°51'0 0.0
2014-Jul-30 17:33N 35°22' E 139°51'0 0.0
2014-Jul-30 16:33N 35°22' E 139°51'0 0.0
2014-Jul-30 15:33N 35°22' E 139°51'0 0.0
2014-Jul-30 14:24N 35°22' E 139°51'0 0.0
2014-Jul-30 13:30N 35°22' E 139°51'0 0.0
2014-Jul-30 12:33N 35°22' E 139°51'0 0.0
2014-Jul-30 11:33N 35°22' E 139°51'0 0.0
2014-Jul-30 10:33N 35°22' E 139°51'0 0.0
2014-Jul-30 09:33N 35°22' E 139°51'0 0.0
2014-Jul-30 08:33N 35°22' E 139°51'2 2.1
2014-Jul-30 07:33N 35°23' E 139°49'0 0.0
2014-Jul-30 06:33N 35°23' E 139°49'0 0.0
2014-Jul-30 05:33N 35°23' E 139°49'0 0.0
2014-Jul-30 04:33N 35°23' E 139°49'0 0.0
2014-Jul-30 03:33N 35°23' E 139°49'0 0.1
2014-Jul-30 02:33N 35°23' E 139°49'0 0.0
2014-Jul-30 01:33N 35°23' E 139°49'0 0.0
2014-Jul-30 00:33N 35°23' E 139°49'0 0.0
2014-Jul-29 23:33N 35°23' E 139°49'0 0.1
2014-Jul-29 22:33N 35°23' E 139°49'0 0.0
2014-Jul-29 21:33N 35°23' E 139°49'0 0.0
2014-Jul-29 20:33N 35°23' E 139°49'0 0.0
2014-Jul-29 19:33N 35°23' E 139°49'0 0.0
2014-Jul-29 18:33N 35°23' E 139°49'0 0.0
2014-Jul-29 17:33N 35°23' E 139°49'0 0.0
2014-Jul-29 16:33N 35°23' E 139°49'0 0.0
2014-Jul-29 15:33N 35°23' E 139°49'0 0.0
2014-Jul-29 14:33N 35°23' E 139°49'0 0.0
2014-Jul-29 13:33N 35°23' E 139°49'0 0.0
2014-Jul-29 12:33N 35°23' E 139°49'0 0.0
2014-Jul-29 11:33N 35°23' E 139°49'0 0.0
2014-Jul-29 10:33N 35°23' E 139°49'0 0.0
2014-Jul-29 09:33N 35°23' E 139°49'0 0.0
2014-Jul-29 08:33N 35°23' E 139°49'7 7.0
2014-Jul-29 07:33N 35°29' E 139°51'10 9.7
2014-Jul-29 06:33N 35°37' E 139°59'0 0.0
2014-Jul-29 05:33N 35°37' E 139°59'3 2.4
2014-Jul-29 04:11N 35°40' E 139°57'0 0.0
2014-Jul-29 03:29N 35°40' E 139°57'0 0.0
2014-Jul-29 02:29N 35°40' E 139°57'0 0.0
2014-Jul-29 01:23N 35°40' E 139°57'0 0.0
2014-Jul-29 00:08N 35°40' E 139°57'0 0.0
2014-Jul-28 23:32N 35°40' E 139°57'2 1.7
2014-Jul-28 22:33N 35°39' E 139°58'1010.1
2014-Jul-28 21:33N 35°30' E 139°53'1111.3
2014-Jul-28 20:33N 35°21' E 139°45'1111.2
2014-Jul-28 19:33N 35°09' E 139°47'1211.5
2014-Jul-28 18:33N 35°00' E 139°38'1212.5
2014-Jul-28 17:33N 34°53' E 139°26'  
2014-Jul-24 19:26N 34°38' E 134°58'8 8.7
2014-Jul-24 18:33N 34°33' E 135°05'1211.5
2014-Jul-24 17:33N 34°22' E 135°01'1010.0
2014-Jul-24 16:32N 34°12' E 134°60'226 9.4
2014-Jul-23 16:31N 34°58' E 139°28'1010.5
2014-Jul-23 15:33N 35°04' E 139°37'1111.4
2014-Jul-23 14:33N 35°13' E 139°46'1111.0
2014-Jul-23 13:33N 35°23' E 139°43'7 6.9
2014-Jul-23 12:33N 35°22' E 139°51'0 0.2
2014-Jul-23 11:32N 35°22' E 139°51'0 0.0
2014-Jul-23 10:32N 35°22' E 139°51'0 0.0
2014-Jul-23 09:32N 35°22' E 139°51'0 0.0
2014-Jul-23 08:31N 35°22' E 139°51'0 0.0
2014-Jul-23 07:31N 35°22' E 139°51'0 0.0
2014-Jul-23 06:31N 35°22' E 139°51'0 0.0
2014-Jul-23 05:28N 35°22' E 139°51'0 0.0
2014-Jul-23 04:28N 35°22' E 139°51'0 0.0
2014-Jul-23 03:31N 35°22' E 139°51'0 0.0
2014-Jul-23 02:31N 35°22' E 139°51'0 0.2
2014-Jul-23 01:34N 35°21' E 139°51'2 1.9
2014-Jul-23 00:31N 35°23' E 139°49'0 0.0
2014-Jul-22 23:31N 35°23' E 139°49'0 0.1
2014-Jul-22 22:31N 35°23' E 139°49'0 0.0
2014-Jul-22 21:31N 35°23' E 139°49'0 0.0
2014-Jul-22 20:31N 35°23' E 139°49'0 0.0
2014-Jul-22 19:31N 35°23' E 139°49'0 0.0
2014-Jul-22 18:31N 35°23' E 139°49'0 0.0
2014-Jul-22 17:31N 35°23' E 139°49'0 0.0
2014-Jul-22 16:31N 35°23' E 139°49'0 0.0
2014-Jul-22 15:31N 35°23' E 139°49'0 0.0
2014-Jul-22 14:31N 35°23' E 139°49'0 0.0
2014-Jul-22 13:31N 35°23' E 139°49'0 0.0
2014-Jul-22 12:31N 35°23' E 139°49'0 0.0
2014-Jul-22 11:31N 35°23' E 139°49'0 0.0
2014-Jul-22 10:31N 35°23' E 139°49'0 0.0
2014-Jul-22 09:31N 35°23' E 139°49'0 0.0
2014-Jul-22 08:31N 35°23' E 139°49'7 6.9
2014-Jul-22 07:33N 35°29' E 139°51'1111.3
2014-Jul-22 06:33N 35°39' E 139°58'3 2.7
2014-Jul-22 05:33N 35°41' E 139°57'0 0.0
2014-Jul-22 04:31N 35°41' E 139°57'0 0.0
2014-Jul-22 03:28N 35°41' E 139°57'0 0.0
2014-Jul-22 02:28N 35°41' E 139°57'0 0.0
2014-Jul-22 01:31N 35°41' E 139°57'0 0.0
2014-Jul-22 00:33N 35°41' E 139°57'4 4.2
2014-Jul-21 23:33N 35°37' E 139°58'0 0.1
2014-Jul-21 22:33N 35°37' E 139°58'3 3.2
2014-Jul-21 21:33N 35°40' E 139°57'0 0.2
2014-Jul-21 20:25N 35°40' E 139°57'0 0.0
2014-Jul-21 20:13N 35°40' E 139°57'0 0.0
2014-Jul-21 19:31N 35°40' E 139°57'0 0.0
2014-Jul-21 18:34N 35°40' E 139°57'0 0.0
2014-Jul-21 17:18N 35°40' E 139°57'0 0.0
2014-Jul-21 16:30N 35°40' E 139°57'0 0.0
2014-Jul-21 15:33N 35°40' E 139°57'4 3.5
2014-Jul-21 14:32N 35°37' E 139°58'0 0.0
2014-Jul-21 13:29N 35°37' E 139°58'0 0.0
2014-Jul-21 12:29N 35°37' E 139°58'0 0.0
2014-Jul-21 11:32N 35°37' E 139°58'0 0.0
2014-Jul-21 10:29N 35°37' E 139°58'7 8.1
2014-Jul-21 09:33N 35°30' E 139°53'1211.8
2014-Jul-21 08:33N 35°21' E 139°45'1110.8
2014-Jul-21 07:33N 35°10' E 139°46'1211.8
2014-Jul-21 06:33N 35°00' E 139°38'  

Dump ship's entire track history